sensor_id;sensor_type;location;lat;lon;timestamp;pressure;altitude;pressure_sealevel;temperature;humidity
78117;BME280;69042;59.120;37.904;2023-06-19T00:01:24;100641.28;;;12.55;47.16
78117;BME280;69042;59.120;37.904;2023-06-19T00:03:50;100643.91;;;12.55;47.21
78117;BME280;69042;59.120;37.904;2023-06-19T00:06:17;100633.44;;;12.55;47.32
78117;BME280;69042;59.120;37.904;2023-06-19T00:08:43;100640.31;;;12.58;47.49
78117;BME280;69042;59.120;37.904;2023-06-19T00:11:09;100640.16;;;12.61;47.42
78117;BME280;69042;59.120;37.904;2023-06-19T00:13:36;100634.88;;;12.62;47.57
78117;BME280;69042;59.120;37.904;2023-06-19T00:16:02;100631.25;;;12.65;47.47
78117;BME280;69042;59.120;37.904;2023-06-19T00:18:29;100630.22;;;12.69;47.57
78117;BME280;69042;59.120;37.904;2023-06-19T00:20:55;100631.75;;;12.75;47.66
78117;BME280;69042;59.120;37.904;2023-06-19T00:23:23;100637.63;;;12.80;47.90
78117;BME280;69042;59.120;37.904;2023-06-19T00:25:49;100636.44;;;12.87;47.67
78117;BME280;69042;59.120;37.904;2023-06-19T00:28:16;100631.84;;;12.92;47.68
78117;BME280;69042;59.120;37.904;2023-06-19T00:30:45;100631.63;;;12.97;47.73
78117;BME280;69042;59.120;37.904;2023-06-19T00:33:13;100631.38;;;13.03;47.91
78117;BME280;69042;59.120;37.904;2023-06-19T00:35:40;100624.25;;;13.06;47.89
78117;BME280;69042;59.120;37.904;2023-06-19T00:38:07;100625.81;;;13.10;47.81
78117;BME280;69042;59.120;37.904;2023-06-19T00:40:34;100615.16;;;13.13;47.96
78117;BME280;69042;59.120;37.904;2023-06-19T00:43:01;100621.06;;;13.19;48.03
78117;BME280;69042;59.120;37.904;2023-06-19T00:45:28;100629.72;;;13.21;47.91
78117;BME280;69042;59.120;37.904;2023-06-19T00:47:57;100630.50;;;13.23;48.13
78117;BME280;69042;59.120;37.904;2023-06-19T00:50:25;100625.25;;;13.23;47.89
78117;BME280;69042;59.120;37.904;2023-06-19T00:52:51;100627.88;;;13.23;47.92
78117;BME280;69042;59.120;37.904;2023-06-19T00:55:18;100634.91;;;13.22;47.90
78117;BME280;69042;59.120;37.904;2023-06-19T00:57:45;100631.44;;;13.22;48.02
78117;BME280;69042;59.120;37.904;2023-06-19T01:00:12;100631.34;;;13.23;48.18
78117;BME280;69042;59.120;37.904;2023-06-19T01:02:39;100623.41;;;13.25;48.04
78117;BME280;69042;59.120;37.904;2023-06-19T01:05:06;100626.81;;;13.28;48.32
78117;BME280;69042;59.120;37.904;2023-06-19T01:10:47;100633.69;;;13.31;48.62
78117;BME280;69042;59.120;37.904;2023-06-19T01:13:34;100634.47;;;13.33;48.13
78117;BME280;69042;59.120;37.904;2023-06-19T01:16:03;100631.84;;;13.33;48.02
78117;BME280;69042;59.120;37.904;2023-06-19T01:18:33;100641.25;;;13.37;48.19
78117;BME280;69042;59.120;37.904;2023-06-19T01:21:14;100636.78;;;13.39;48.73
78117;BME280;69042;59.120;37.904;2023-06-19T01:23:42;100641.91;;;13.42;48.23
78117;BME280;69042;59.120;37.904;2023-06-19T01:26:09;100637.44;;;13.44;48.22
78117;BME280;69042;59.120;37.904;2023-06-19T01:28:40;100632.06;;;13.47;48.23
78117;BME280;69042;59.120;37.904;2023-06-19T01:31:12;100630.22;;;13.49;48.38
78117;BME280;69042;59.120;37.904;2023-06-19T01:33:40;100636.09;;;13.54;48.38
78117;BME280;69042;59.120;37.904;2023-06-19T01:36:09;100632.63;;;13.54;48.32
78117;BME280;69042;59.120;37.904;2023-06-19T01:38:37;100629.38;;;13.49;48.62
78117;BME280;69042;59.120;37.904;2023-06-19T01:41:05;100639.19;;;13.44;48.79
78117;BME280;69042;59.120;37.904;2023-06-19T01:43:32;100630.53;;;13.42;49.11
78117;BME280;69042;59.120;37.904;2023-06-19T01:45:59;100628.13;;;13.37;49.13
78117;BME280;69042;59.120;37.904;2023-06-19T01:48:27;100635.09;;;13.38;49.17
78117;BME280;69042;59.120;37.904;2023-06-19T01:50:54;100628.22;;;13.36;49.46
78117;BME280;69042;59.120;37.904;2023-06-19T01:53:20;100629.13;;;13.35;49.43
78117;BME280;69042;59.120;37.904;2023-06-19T01:55:47;100625.66;;;13.34;49.51
78117;BME280;69042;59.120;37.904;2023-06-19T01:58:13;100622.09;;;13.35;49.52
78117;BME280;69042;59.120;37.904;2023-06-19T02:00:39;100625.44;;;13.39;49.59
78117;BME280;69042;59.120;37.904;2023-06-19T02:03:06;100624.38;;;13.43;49.56
78117;BME280;69042;59.120;37.904;2023-06-19T02:05:32;100631.13;;;13.48;49.78
78117;BME280;69042;59.120;37.904;2023-06-19T02:08:01;100630.91;;;13.53;49.55
78117;BME280;69042;59.120;37.904;2023-06-19T02:10:27;100624.59;;;13.57;49.46
78117;BME280;69042;59.120;37.904;2023-06-19T02:12:55;100626.16;;;13.61;49.70
78117;BME280;69042;59.120;37.904;2023-06-19T02:15:21;100617.91;;;13.69;49.72
78117;BME280;69042;59.120;37.904;2023-06-19T02:17:48;100622.97;;;13.73;49.75
78117;BME280;69042;59.120;37.904;2023-06-19T02:20:15;100626.28;;;13.77;49.65
78117;BME280;69042;59.120;37.904;2023-06-19T02:22:41;100630.41;;;13.83;49.54
78117;BME280;69042;59.120;37.904;2023-06-19T02:25:08;100625.78;;;13.88;49.73
78117;BME280;69042;59.120;37.904;2023-06-19T02:27:35;100623.84;;;13.91;49.35
78117;BME280;69042;59.120;37.904;2023-06-19T02:30:01;100616.63;;;13.97;49.21
78117;BME280;69042;59.120;37.904;2023-06-19T02:32:30;100615.47;;;14.02;49.24
78117;BME280;69042;59.120;37.904;2023-06-19T02:34:57;100610.91;;;14.06;49.46
78117;BME280;69042;59.120;37.904;2023-06-19T02:37:25;100612.31;;;14.13;49.06
78117;BME280;69042;59.120;37.904;2023-06-19T02:39:51;100606.91;;;14.16;48.87
78117;BME280;69042;59.120;37.904;2023-06-19T02:42:17;100600.81;;;14.15;48.99
78117;BME280;69042;59.120;37.904;2023-06-19T02:44:43;100599.94;;;14.15;49.36
78117;BME280;69042;59.120;37.904;2023-06-19T02:47:10;100604.38;;;14.14;49.81
78117;BME280;69042;59.120;37.904;2023-06-19T02:49:36;100602.59;;;14.15;50.34
78117;BME280;69042;59.120;37.904;2023-06-19T02:52:04;100598.16;;;14.15;50.65
78117;BME280;69042;59.120;37.904;2023-06-19T02:54:30;100597.94;;;14.20;50.91
78117;BME280;69042;59.120;37.904;2023-06-19T02:56:56;100593.47;;;14.22;52.20
78117;BME280;69042;59.120;37.904;2023-06-19T02:59:41;100593.22;;;14.27;52.75
78117;BME280;69042;59.120;37.904;2023-06-19T03:02:08;100593.94;;;14.30;52.69
78117;BME280;69042;59.120;37.904;2023-06-19T03:07:19;100599.75;;;14.37;53.05
78117;BME280;69042;59.120;37.904;2023-06-19T03:09:45;100594.25;;;14.42;53.16
78117;BME280;69042;59.120;37.904;2023-06-19T03:12:11;100588.75;;;14.46;53.36
78117;BME280;69042;59.120;37.904;2023-06-19T03:14:38;100591.88;;;14.54;53.40
78117;BME280;69042;59.120;37.904;2023-06-19T03:17:04;100590.66;;;14.62;53.59
78117;BME280;69042;59.120;37.904;2023-06-19T03:19:31;100584.13;;;14.69;53.65
78117;BME280;69042;59.120;37.904;2023-06-19T03:21:57;100578.41;;;14.78;53.17
78117;BME280;69042;59.120;37.904;2023-06-19T03:24:24;100576.91;;;14.90;52.99
78117;BME280;69042;59.120;37.904;2023-06-19T03:26:54;100584.31;;;14.99;52.82
78117;BME280;69042;59.120;37.904;2023-06-19T03:29:21;100583.91;;;15.07;52.15
78117;BME280;69042;59.120;37.904;2023-06-19T03:31:53;100587.75;;;15.17;52.01
78117;BME280;69042;59.120;37.904;2023-06-19T03:34:22;100581.22;;;15.24;51.79
78117;BME280;69042;59.120;37.904;2023-06-19T03:36:49;100579.03;;;15.32;51.54
78117;BME280;69042;59.120;37.904;2023-06-19T03:39:16;100586.59;;;15.38;51.54
78117;BME280;69042;59.120;37.904;2023-06-19T03:41:43;100589.75;;;15.45;51.31
78117;BME280;69042;59.120;37.904;2023-06-19T03:44:09;100587.69;;;15.50;51.14
78117;BME280;69042;59.120;37.904;2023-06-19T03:46:35;100587.38;;;15.56;50.74
78117;BME280;69042;59.120;37.904;2023-06-19T03:49:04;100587.00;;;15.62;50.58
78117;BME280;69042;59.120;37.904;2023-06-19T03:51:30;100591.03;;;15.70;50.67
78117;BME280;69042;59.120;37.904;2023-06-19T03:53:57;100587.97;;;15.77;50.50
78117;BME280;69042;59.120;37.904;2023-06-19T03:56:23;100581.28;;;15.88;50.54
78117;BME280;69042;59.120;37.904;2023-06-19T03:59:08;100587.44;;;16.02;50.64
78117;BME280;69042;59.120;37.904;2023-06-19T04:01:34;100589.13;;;16.19;50.63
78117;BME280;69042;59.120;37.904;2023-06-19T04:04:00;100579.16;;;16.39;50.17
78117;BME280;69042;59.120;37.904;2023-06-19T04:06:27;100587.78;;;16.57;49.98
78117;BME280;69042;59.120;37.904;2023-06-19T04:08:53;100585.00;;;16.74;49.63
78117;BME280;69042;59.120;37.904;2023-06-19T04:11:20;100582.13;;;16.93;49.50
78117;BME280;69042;59.120;37.904;2023-06-19T04:13:48;100573.06;;;17.12;49.23
78117;BME280;69042;59.120;37.904;2023-06-19T04:16:15;100572.13;;;17.27;48.97
78117;BME280;69042;59.120;37.904;2023-06-19T04:21:29;100565.03;;;17.69;48.72
78117;BME280;69042;59.120;37.904;2023-06-19T04:23:55;100564.16;;;17.83;48.44
78117;BME280;69042;59.120;37.904;2023-06-19T04:26:21;100560.53;;;17.98;47.51
78117;BME280;69042;59.120;37.904;2023-06-19T04:28:48;100550.19;;;18.08;46.46
78117;BME280;69042;59.120;37.904;2023-06-19T04:31:14;100558.56;;;18.15;46.10
78117;BME280;69042;59.120;37.904;2023-06-19T04:33:45;100559.22;;;18.18;45.78
78117;BME280;69042;59.120;37.904;2023-06-19T04:36:11;100547.38;;;18.24;45.70
78117;BME280;69042;59.120;37.904;2023-06-19T04:38:38;100552.69;;;18.24;45.88
78117;BME280;69042;59.120;37.904;2023-06-19T04:41:04;100545.75;;;18.21;46.30
78117;BME280;69042;59.120;37.904;2023-06-19T04:43:30;100551.19;;;18.20;46.25
78117;BME280;69042;59.120;37.904;2023-06-19T04:45:57;100558.25;;;18.19;46.51
78117;BME280;69042;59.120;37.904;2023-06-19T04:48:23;100557.72;;;18.14;46.46
78117;BME280;69042;59.120;37.904;2023-06-19T04:50:52;100573.03;;;18.09;46.57
78117;BME280;69042;59.120;37.904;2023-06-19T04:53:18;100561.19;;;18.02;46.56
78117;BME280;69042;59.120;37.904;2023-06-19T04:55:44;100562.34;;;17.98;46.71
78117;BME280;69042;59.120;37.904;2023-06-19T04:58:11;100558.84;;;17.97;46.10
78117;BME280;69042;59.120;37.904;2023-06-19T05:00:37;100565.06;;;17.96;45.44
78117;BME280;69042;59.120;37.904;2023-06-19T05:03:03;100568.53;;;17.97;45.85
78117;BME280;69042;59.120;37.904;2023-06-19T05:05:30;100560.44;;;18.00;45.43
78117;BME280;69042;59.120;37.904;2023-06-19T05:08:15;100559.72;;;18.10;45.26
78117;BME280;69042;59.120;37.904;2023-06-19T05:10:41;100572.13;;;18.23;44.50
78117;BME280;69042;59.120;37.904;2023-06-19T05:13:26;100564.31;;;18.34;43.98
78117;BME280;69042;59.120;37.904;2023-06-19T05:15:52;100564.75;;;18.41;43.16
78117;BME280;69042;59.120;37.904;2023-06-19T05:21:04;100557.97;;;18.37;42.60
78117;BME280;69042;59.120;37.904;2023-06-19T05:23:30;100559.78;;;18.36;42.23
78117;BME280;69042;59.120;37.904;2023-06-19T05:25:56;100553.31;;;18.40;41.89
78117;BME280;69042;59.120;37.904;2023-06-19T05:28:23;100546.97;;;18.43;41.22
78117;BME280;69042;59.120;37.904;2023-06-19T05:30:49;100556.09;;;18.51;41.36
78117;BME280;69042;59.120;37.904;2023-06-19T05:33:16;100553.13;;;18.56;41.01
78117;BME280;69042;59.120;37.904;2023-06-19T05:35:43;100547.75;;;18.58;40.66
78117;BME280;69042;59.120;37.904;2023-06-19T05:38:28;100545.59;;;18.50;40.32
78117;BME280;69042;59.120;37.904;2023-06-19T05:40:57;100538.28;;;18.41;40.14
78117;BME280;69042;59.120;37.904;2023-06-19T05:43:23;100538.38;;;18.39;39.95
78117;BME280;69042;59.120;37.904;2023-06-19T05:45:51;100541.69;;;18.43;40.18
78117;BME280;69042;59.120;37.904;2023-06-19T05:48:18;100544.22;;;18.44;39.89
78117;BME280;69042;59.120;37.904;2023-06-19T05:50:44;100555.97;;;18.40;39.28
78117;BME280;69042;59.120;37.904;2023-06-19T05:53:11;100552.69;;;18.37;39.49
78117;BME280;69042;59.120;37.904;2023-06-19T05:55:37;100555.31;;;18.37;39.38
78117;BME280;69042;59.120;37.904;2023-06-19T05:58:03;100546.22;;;18.41;40.68
78117;BME280;69042;59.120;37.904;2023-06-19T06:00:30;100547.94;;;18.55;41.09
78117;BME280;69042;59.120;37.904;2023-06-19T06:02:58;100550.38;;;18.70;41.33
78117;BME280;69042;59.120;37.904;2023-06-19T06:05:28;100542.03;;;18.89;39.95
78117;BME280;69042;59.120;37.904;2023-06-19T06:08:13;100544.38;;;18.94;39.95
78117;BME280;69042;59.120;37.904;2023-06-19T06:10:39;100541.38;;;18.99;39.37
78117;BME280;69042;59.120;37.904;2023-06-19T06:13:24;100547.53;;;19.12;39.98
78117;BME280;69042;59.120;37.904;2023-06-19T06:15:51;100553.91;;;19.33;39.83
78117;BME280;69042;59.120;37.904;2023-06-19T06:18:17;100540.81;;;19.56;39.25
78117;BME280;69042;59.120;37.904;2023-06-19T06:20:43;100534.63;;;19.68;39.00
78117;BME280;69042;59.120;37.904;2023-06-19T06:23:28;100542.53;;;19.81;39.02
78117;BME280;69042;59.120;37.904;2023-06-19T06:25:54;100535.84;;;19.88;38.68
78117;BME280;69042;59.120;37.904;2023-06-19T06:28:27;100529.56;;;19.89;38.91
78117;BME280;69042;59.120;37.904;2023-06-19T06:30:54;100534.81;;;20.02;38.54
78117;BME280;69042;59.120;37.904;2023-06-19T06:33:20;100531.34;;;20.13;38.57
78117;BME280;69042;59.120;37.904;2023-06-19T06:35:47;100527.38;;;20.18;38.45
78117;BME280;69042;59.120;37.904;2023-06-19T06:38:17;100530.41;;;20.25;38.51
78117;BME280;69042;59.120;37.904;2023-06-19T06:40:45;100531.41;;;20.35;38.29
78117;BME280;69042;59.120;37.904;2023-06-19T06:43:12;100531.44;;;20.47;38.67
78117;BME280;69042;59.120;37.904;2023-06-19T06:45:38;100537.63;;;20.58;38.46
78117;BME280;69042;59.120;37.904;2023-06-19T06:48:12;100537.38;;;20.73;38.06
78117;BME280;69042;59.120;37.904;2023-06-19T06:50:38;100527.59;;;20.73;37.27
78117;BME280;69042;59.120;37.904;2023-06-19T06:53:23;100526.88;;;20.71;36.96
78117;BME280;69042;59.120;37.904;2023-06-19T06:55:49;100522.66;;;20.69;36.82
78117;BME280;69042;59.120;37.904;2023-06-19T06:58:15;100526.50;;;20.65;37.22
78117;BME280;69042;59.120;37.904;2023-06-19T07:00:43;100518.53;;;20.65;37.44
78117;BME280;69042;59.120;37.904;2023-06-19T07:03:10;100512.66;;;20.72;37.37
78117;BME280;69042;59.120;37.904;2023-06-19T07:05:37;100520.88;;;20.81;37.61
78117;BME280;69042;59.120;37.904;2023-06-19T07:08:03;100517.59;;;20.88;37.35
78117;BME280;69042;59.120;37.904;2023-06-19T07:10:30;100514.94;;;20.99;36.87
78117;BME280;69042;59.120;37.904;2023-06-19T07:12:56;100516.03;;;21.08;36.49
78117;BME280;69042;59.120;37.904;2023-06-19T07:15:23;100504.78;;;21.05;36.37
78117;BME280;69042;59.120;37.904;2023-06-19T07:17:49;100511.31;;;21.00;36.71
78117;BME280;69042;59.120;37.904;2023-06-19T07:20:15;100510.09;;;20.93;36.76
78117;BME280;69042;59.120;37.904;2023-06-19T07:22:42;100510.09;;;20.82;36.50
78117;BME280;69042;59.120;37.904;2023-06-19T07:25:10;100507.81;;;20.77;36.86
78117;BME280;69042;59.120;37.904;2023-06-19T07:27:38;100501.06;;;20.73;36.83
78117;BME280;69042;59.120;37.904;2023-06-19T07:30:06;100514.09;;;20.65;36.47
78117;BME280;69042;59.120;37.904;2023-06-19T07:32:33;100505.47;;;20.50;37.03
78117;BME280;69042;59.120;37.904;2023-06-19T07:34:59;100503.56;;;20.52;36.94
78117;BME280;69042;59.120;37.904;2023-06-19T07:37:25;100499.00;;;20.66;36.90
78117;BME280;69042;59.120;37.904;2023-06-19T07:39:52;100501.41;;;20.80;36.96
78117;BME280;69042;59.120;37.904;2023-06-19T07:42:19;100493.69;;;20.99;36.56
78117;BME280;69042;59.120;37.904;2023-06-19T07:44:45;100511.91;;;21.15;36.19
78117;BME280;69042;59.120;37.904;2023-06-19T07:47:12;100503.94;;;21.15;35.61
78117;BME280;69042;59.120;37.904;2023-06-19T07:52:24;100495.88;;;20.94;35.52
78117;BME280;69042;59.120;37.904;2023-06-19T07:54:55;100497.56;;;20.84;35.49
78117;BME280;69042;59.120;37.904;2023-06-19T07:57:22;100496.97;;;20.81;35.89
78117;BME280;69042;59.120;37.904;2023-06-19T07:59:49;100490.56;;;20.83;35.99
78117;BME280;69042;59.120;37.904;2023-06-19T08:02:16;100487.19;;;20.81;36.22
78117;BME280;69042;59.120;37.904;2023-06-19T08:04:42;100498.03;;;20.78;35.96
78117;BME280;69042;59.120;37.904;2023-06-19T08:07:09;100495.25;;;20.68;35.94
78117;BME280;69042;59.120;37.904;2023-06-19T08:09:53;100475.91;;;20.55;35.89
78117;BME280;69042;59.120;37.904;2023-06-19T08:12:19;100491.25;;;20.51;36.03
78117;BME280;69042;59.120;37.904;2023-06-19T08:17:31;100486.78;;;20.52;36.26
78117;BME280;69042;59.120;37.904;2023-06-19T08:19:57;100479.41;;;20.55;36.17
78117;BME280;69042;59.120;37.904;2023-06-19T08:22:23;100471.69;;;20.52;36.29
78117;BME280;69042;59.120;37.904;2023-06-19T08:24:50;100470.28;;;20.59;36.39
78117;BME280;69042;59.120;37.904;2023-06-19T08:27:17;100465.09;;;20.81;36.45
78117;BME280;69042;59.120;37.904;2023-06-19T08:29:43;100454.19;;;21.06;36.45
78117;BME280;69042;59.120;37.904;2023-06-19T08:32:09;100452.09;;;21.32;36.13
78117;BME280;69042;59.120;37.904;2023-06-19T08:34:35;100458.75;;;21.59;35.43
78117;BME280;69042;59.120;37.904;2023-06-19T08:37:02;100457.31;;;21.66;35.33
78117;BME280;69042;59.120;37.904;2023-06-19T08:39:28;100448.78;;;21.72;34.96
78117;BME280;69042;59.120;37.904;2023-06-19T08:41:54;100450.34;;;21.75;34.68
78117;BME280;69042;59.120;37.904;2023-06-19T08:44:21;100444.66;;;21.79;34.56
78117;BME280;69042;59.120;37.904;2023-06-19T08:46:47;100440.31;;;21.78;34.48
78117;BME280;69042;59.120;37.904;2023-06-19T08:49:13;100440.81;;;21.72;34.49
78117;BME280;69042;59.120;37.904;2023-06-19T08:51:42;100444.47;;;21.71;34.54
78117;BME280;69042;59.120;37.904;2023-06-19T08:54:09;100434.47;;;21.85;34.34
78117;BME280;69042;59.120;37.904;2023-06-19T08:56:38;100444.22;;;21.95;33.85
78117;BME280;69042;59.120;37.904;2023-06-19T08:59:12;100438.63;;;21.98;33.82
78117;BME280;69042;59.120;37.904;2023-06-19T09:01:38;100433.88;;;22.02;34.16
78117;BME280;69042;59.120;37.904;2023-06-19T09:04:13;100440.19;;;22.01;34.08
78117;BME280;69042;59.120;37.904;2023-06-19T09:06:50;100434.47;;;22.06;33.72
78117;BME280;69042;59.120;37.904;2023-06-19T09:09:18;100435.63;;;22.13;33.85
78117;BME280;69042;59.120;37.904;2023-06-19T09:17:03;100416.22;;;22.22;34.68
78117;BME280;69042;59.120;37.904;2023-06-19T09:19:30;100419.81;;;22.32;34.66
78117;BME280;69042;59.120;37.904;2023-06-19T09:22:07;100417.16;;;22.42;34.73
78117;BME280;69042;59.120;37.904;2023-06-19T09:24:41;100413.88;;;22.59;34.60
78117;BME280;69042;59.120;37.904;2023-06-19T09:27:15;100397.50;;;22.74;35.08
78117;BME280;69042;59.120;37.904;2023-06-19T09:32:30;100402.97;;;23.22;34.71
78117;BME280;69042;59.120;37.904;2023-06-19T09:34:57;100400.44;;;23.40;34.67
78117;BME280;69042;59.120;37.904;2023-06-19T09:37:28;100396.81;;;23.51;34.25
78117;BME280;69042;59.120;37.904;2023-06-19T09:40:13;100396.81;;;23.51;34.49
78117;BME280;69042;59.120;37.904;2023-06-19T09:42:42;100380.81;;;23.51;34.10
78117;BME280;69042;59.120;37.904;2023-06-19T09:45:41;100394.97;;;23.52;34.34
78117;BME280;69042;59.120;37.904;2023-06-19T09:48:12;100375.34;;;23.33;34.30
78117;BME280;69042;59.120;37.904;2023-06-19T09:50:51;100382.91;;;23.18;34.70
78117;BME280;69042;59.120;37.904;2023-06-19T09:53:20;100375.47;;;23.22;34.67
78117;BME280;69042;59.120;37.904;2023-06-19T09:58:34;100374.47;;;23.33;34.42
78117;BME280;69042;59.120;37.904;2023-06-19T10:01:04;100372.22;;;23.28;34.66
78117;BME280;69042;59.120;37.904;2023-06-19T10:03:32;100367.31;;;23.23;34.50
78117;BME280;69042;59.120;37.904;2023-06-19T10:08:45;100367.19;;;23.15;34.62
78117;BME280;69042;59.120;37.904;2023-06-19T10:11:12;100353.97;;;23.23;34.77
78117;BME280;69042;59.120;37.904;2023-06-19T10:13:42;100349.22;;;23.46;34.84
78117;BME280;69042;59.120;37.904;2023-06-19T10:16:20;100342.16;;;23.75;34.89
78117;BME280;69042;59.120;37.904;2023-06-19T10:18:47;100342.13;;;23.94;34.73
78117;BME280;69042;59.120;37.904;2023-06-19T10:21:21;100345.56;;;24.14;34.32
78117;BME280;69042;59.120;37.904;2023-06-19T10:23:57;100343.16;;;24.21;33.84
78117;BME280;69042;59.120;37.904;2023-06-19T10:26:42;100351.69;;;24.24;33.82
78117;BME280;69042;59.120;37.904;2023-06-19T10:29:17;100341.25;;;24.31;33.86
78117;BME280;69042;59.120;37.904;2023-06-19T10:31:43;100339.84;;;24.37;33.77
78117;BME280;69042;59.120;37.904;2023-06-19T10:34:11;100334.19;;;24.40;33.66
78117;BME280;69042;59.120;37.904;2023-06-19T10:39:24;100330.81;;;24.47;33.77
78117;BME280;69042;59.120;37.904;2023-06-19T10:41:50;100325.88;;;24.43;33.82
78117;BME280;69042;59.120;37.904;2023-06-19T10:44:17;100332.38;;;24.40;34.13
78117;BME280;69042;59.120;37.904;2023-06-19T10:46:43;100329.56;;;24.42;33.93
78117;BME280;69042;59.120;37.904;2023-06-19T10:49:10;100324.09;;;24.34;33.85
78117;BME280;69042;59.120;37.904;2023-06-19T10:51:58;100317.38;;;24.29;34.19
78117;BME280;69042;59.120;37.904;2023-06-19T10:54:25;100318.63;;;24.35;34.18
78117;BME280;69042;59.120;37.904;2023-06-19T10:56:51;100318.56;;;24.45;34.33
78117;BME280;69042;59.120;37.904;2023-06-19T10:59:17;100324.03;;;24.53;33.76
78117;BME280;69042;59.120;37.904;2023-06-19T11:01:48;100321.47;;;24.61;34.07
78117;BME280;69042;59.120;37.904;2023-06-19T11:04:16;100322.81;;;24.65;33.45
78117;BME280;69042;59.120;37.904;2023-06-19T11:06:44;100311.63;;;24.62;33.49
78117;BME280;69042;59.120;37.904;2023-06-19T11:09:12;100315.50;;;24.67;33.80
78117;BME280;69042;59.120;37.904;2023-06-19T11:11:57;100292.59;;;25.01;33.37
78117;BME280;69042;59.120;37.904;2023-06-19T11:14:29;100298.88;;;25.27;33.00
78117;BME280;69042;59.120;37.904;2023-06-19T11:19:40;100295.38;;;25.27;32.85
78117;BME280;69042;59.120;37.904;2023-06-19T11:22:09;100299.19;;;25.24;32.58
78117;BME280;69042;59.120;37.904;2023-06-19T11:24:35;100302.59;;;25.17;32.70
78117;BME280;69042;59.120;37.904;2023-06-19T11:29:55;100288.50;;;24.88;32.35
78117;BME280;69042;59.120;37.904;2023-06-19T11:32:22;100286.56;;;24.81;31.95
78117;BME280;69042;59.120;37.904;2023-06-19T11:34:53;100298.13;;;24.63;31.85
78117;BME280;69042;59.120;37.904;2023-06-19T11:37:19;100297.50;;;24.42;32.38
78117;BME280;69042;59.120;37.904;2023-06-19T11:39:48;100292.81;;;24.26;32.89
78117;BME280;69042;59.120;37.904;2023-06-19T11:42:15;100290.97;;;24.26;32.99
78117;BME280;69042;59.120;37.904;2023-06-19T11:47:37;100282.06;;;24.99;33.94
78117;BME280;69042;59.120;37.904;2023-06-19T11:50:05;100271.41;;;25.69;32.68
78117;BME280;69042;59.120;37.904;2023-06-19T11:52:31;100265.69;;;25.90;32.58
78117;BME280;69042;59.120;37.904;2023-06-19T11:54:57;100260.44;;;26.15;32.64
78117;BME280;69042;59.120;37.904;2023-06-19T11:57:23;100257.56;;;26.67;32.31
78117;BME280;69042;59.120;37.904;2023-06-19T11:59:50;100258.28;;;27.02;31.70
78117;BME280;69042;59.120;37.904;2023-06-19T12:02:17;100255.91;;;26.99;31.24
78117;BME280;69042;59.120;37.904;2023-06-19T12:04:43;100256.91;;;26.82;30.86
78117;BME280;69042;59.120;37.904;2023-06-19T12:07:09;100254.88;;;26.59;31.10
78117;BME280;69042;59.120;37.904;2023-06-19T12:09:35;100249.44;;;26.34;31.24
78117;BME280;69042;59.120;37.904;2023-06-19T12:12:02;100248.75;;;26.24;31.32
78117;BME280;69042;59.120;37.904;2023-06-19T12:14:28;100242.56;;;26.24;31.20
78117;BME280;69042;59.120;37.904;2023-06-19T12:16:54;100237.34;;;26.22;31.34
78117;BME280;69042;59.120;37.904;2023-06-19T12:19:20;100232.00;;;26.22;32.00
78117;BME280;69042;59.120;37.904;2023-06-19T12:21:46;100240.66;;;26.16;31.23
78117;BME280;69042;59.120;37.904;2023-06-19T12:24:12;100241.75;;;25.89;31.27
78117;BME280;69042;59.120;37.904;2023-06-19T12:26:39;100245.44;;;25.62;31.40
78117;BME280;69042;59.120;37.904;2023-06-19T12:29:06;100222.31;;;25.52;31.98
78117;BME280;69042;59.120;37.904;2023-06-19T12:31:51;100222.09;;;25.46;31.71
78117;BME280;69042;59.120;37.904;2023-06-19T12:34:17;100227.81;;;25.51;32.58
78117;BME280;69042;59.120;37.904;2023-06-19T12:36:43;100210.22;;;26.17;33.21
78117;BME280;69042;59.120;37.904;2023-06-19T12:39:10;100216.31;;;27.17;32.15
78117;BME280;69042;59.120;37.904;2023-06-19T12:41:42;100201.56;;;27.94;31.61
78117;BME280;69042;59.120;37.904;2023-06-19T12:44:10;100198.03;;;27.93;29.89
78117;BME280;69042;59.120;37.904;2023-06-19T12:46:37;100213.63;;;27.50;30.20
78117;BME280;69042;59.120;37.904;2023-06-19T12:49:03;100196.75;;;27.00;30.32
78117;BME280;69042;59.120;37.904;2023-06-19T12:51:29;100191.34;;;26.51;30.52
78117;BME280;69042;59.120;37.904;2023-06-19T12:53:55;100182.44;;;26.10;31.04
78117;BME280;69042;59.120;37.904;2023-06-19T12:56:22;100184.94;;;25.77;31.30
78117;BME280;69042;59.120;37.904;2023-06-19T12:58:48;100189.56;;;25.67;32.04
78117;BME280;69042;59.120;37.904;2023-06-19T13:01:14;100171.84;;;25.66;32.18
78117;BME280;69042;59.120;37.904;2023-06-19T13:03:40;100181.72;;;25.65;32.10
78117;BME280;69042;59.120;37.904;2023-06-19T13:06:06;100206.44;;;25.59;31.61
78117;BME280;69042;59.120;37.904;2023-06-19T13:08:32;100175.38;;;25.66;32.47
78117;BME280;69042;59.120;37.904;2023-06-19T13:10:58;100184.91;;;26.03;31.86
78117;BME280;69042;59.120;37.904;2023-06-19T13:13:25;100179.34;;;26.55;31.76
78117;BME280;69042;59.120;37.904;2023-06-19T13:15:51;100175.09;;;27.27;31.46
78117;BME280;69042;59.120;37.904;2023-06-19T13:18:17;100169.38;;;27.77;30.06
78117;BME280;69042;59.120;37.904;2023-06-19T13:20:44;100171.78;;;27.72;28.83
78117;BME280;69042;59.120;37.904;2023-06-19T13:23:14;100176.44;;;27.31;28.78
78117;BME280;69042;59.120;37.904;2023-06-19T13:25:40;100167.91;;;26.86;29.51
78117;BME280;69042;59.120;37.904;2023-06-19T13:28:06;100165.44;;;26.68;29.59